sensor_id;sensor_type;location;lat;lon;timestamp;P1;durP1;ratioP1;P2;durP2;ratioP2
12921;SDS011;6528;48.086;16.282;2022-12-07T00:01:17;1.60;;;1.13;;
12921;SDS011;6528;48.086;16.282;2022-12-07T00:03:47;1.00;;;0.97;;
12921;SDS011;6528;48.086;16.282;2022-12-07T00:06:16;1.20;;;1.10;;
12921;SDS011;6528;48.086;16.282;2022-12-07T00:08:44;1.13;;;1.07;;
12921;SDS011;6528;48.086;16.282;2022-12-07T00:11:15;1.10;;;1.10;;
12921;SDS011;6528;48.086;16.282;2022-12-07T00:13:44;1.37;;;1.27;;
12921;SDS011;6528;48.086;16.282;2022-12-07T00:18:41;0.73;;;0.73;;
12921;SDS011;6528;48.086;16.282;2022-12-07T00:21:10;0.90;;;0.90;;
12921;SDS011;6528;48.086;16.282;2022-12-07T00:23:44;2.93;;;1.43;;
12921;SDS011;6528;48.086;16.282;2022-12-07T00:26:13;1.20;;;1.10;;
12921;SDS011;6528;48.086;16.282;2022-12-07T00:28:46;1.17;;;0.90;;
12921;SDS011;6528;48.086;16.282;2022-12-07T00:31:15;1.03;;;1.00;;
12921;SDS011;6528;48.086;16.282;2022-12-07T00:33:44;1.07;;;1.00;;
12921;SDS011;6528;48.086;16.282;2022-12-07T00:36:12;1.30;;;1.20;;
12921;SDS011;6528;48.086;16.282;2022-12-07T00:38:41;1.00;;;1.00;;
12921;SDS011;6528;48.086;16.282;2022-12-07T00:41:16;1.10;;;1.10;;
12921;SDS011;6528;48.086;16.282;2022-12-07T00:43:48;0.70;;;0.70;;
12921;SDS011;6528;48.086;16.282;2022-12-07T00:46:16;0.70;;;0.70;;
12921;SDS011;6528;48.086;16.282;2022-12-07T00:48:44;1.00;;;1.00;;
12921;SDS011;6528;48.086;16.282;2022-12-07T00:51:13;0.90;;;0.90;;
12921;SDS011;6528;48.086;16.282;2022-12-07T00:53:41;0.90;;;0.90;;
12921;SDS011;6528;48.086;16.282;2022-12-07T00:56:10;1.23;;;1.10;;
12921;SDS011;6528;48.086;16.282;2022-12-07T00:58:39;0.80;;;0.80;;
12921;SDS011;6528;48.086;16.282;2022-12-07T01:01:06;1.20;;;1.10;;
12921;SDS011;6528;48.086;16.282;2022-12-07T01:03:35;1.10;;;1.00;;
12921;SDS011;6528;48.086;16.282;2022-12-07T01:06:02;1.43;;;1.07;;
12921;SDS011;6528;48.086;16.282;2022-12-07T01:08:29;1.40;;;1.30;;
12921;SDS011;6528;48.086;16.282;2022-12-07T01:11:03;1.03;;;1.03;;
12921;SDS011;6528;48.086;16.282;2022-12-07T01:13:33;0.90;;;0.90;;
12921;SDS011;6528;48.086;16.282;2022-12-07T01:16:02;0.90;;;0.90;;
12921;SDS011;6528;48.086;16.282;2022-12-07T01:18:31;1.10;;;1.10;;
12921;SDS011;6528;48.086;16.282;2022-12-07T01:21:07;0.80;;;0.80;;
12921;SDS011;6528;48.086;16.282;2022-12-07T01:23:37;1.03;;;0.90;;
12921;SDS011;6528;48.086;16.282;2022-12-07T01:26:06;1.07;;;1.07;;
12921;SDS011;6528;48.086;16.282;2022-12-07T01:28:36;1.00;;;0.90;;
12921;SDS011;6528;48.086;16.282;2022-12-07T01:31:10;1.40;;;1.30;;
12921;SDS011;6528;48.086;16.282;2022-12-07T01:33:42;1.10;;;1.10;;
12921;SDS011;6528;48.086;16.282;2022-12-07T01:38:46;0.87;;;0.87;;
12921;SDS011;6528;48.086;16.282;2022-12-07T01:41:15;1.10;;;1.10;;
12921;SDS011;6528;48.086;16.282;2022-12-07T01:46:34;0.80;;;0.80;;
12921;SDS011;6528;48.086;16.282;2022-12-07T01:49:01;1.00;;;1.00;;
12921;SDS011;6528;48.086;16.282;2022-12-07T01:51:30;1.00;;;1.00;;
12921;SDS011;6528;48.086;16.282;2022-12-07T01:53:58;1.00;;;1.00;;
12921;SDS011;6528;48.086;16.282;2022-12-07T01:56:26;1.10;;;1.10;;
12921;SDS011;6528;48.086;16.282;2022-12-07T01:58:54;1.23;;;1.13;;
12921;SDS011;6528;48.086;16.282;2022-12-07T02:01:23;1.10;;;1.10;;
12921;SDS011;6528;48.086;16.282;2022-12-07T02:03:50;0.97;;;0.97;;
12921;SDS011;6528;48.086;16.282;2022-12-07T02:06:19;1.10;;;1.00;;
12921;SDS011;6528;48.086;16.282;2022-12-07T02:08:49;0.60;;;0.60;;
12921;SDS011;6528;48.086;16.282;2022-12-07T02:11:16;1.00;;;1.00;;
12921;SDS011;6528;48.086;16.282;2022-12-07T02:13:44;1.30;;;1.07;;
12921;SDS011;6528;48.086;16.282;2022-12-07T02:18:58;1.83;;;1.20;;
12921;SDS011;6528;48.086;16.282;2022-12-07T02:27:56;3.20;;;1.17;;
12921;SDS011;6528;48.086;16.282;2022-12-07T02:30:31;1.90;;;1.10;;
12921;SDS011;6528;48.086;16.282;2022-12-07T02:36:03;1.40;;;1.30;;
12921;SDS011;6528;48.086;16.282;2022-12-07T02:39:07;0.80;;;0.80;;
12921;SDS011;6528;48.086;16.282;2022-12-07T02:41:44;1.00;;;1.00;;
12921;SDS011;6528;48.086;16.282;2022-12-07T02:44:18;1.03;;;1.03;;
12921;SDS011;6528;48.086;16.282;2022-12-07T02:47:02;1.30;;;1.30;;
12921;SDS011;6528;48.086;16.282;2022-12-07T02:49:32;1.27;;;1.17;;
12921;SDS011;6528;48.086;16.282;2022-12-07T02:51:59;1.40;;;1.30;;
12921;SDS011;6528;48.086;16.282;2022-12-07T02:54:26;1.10;;;1.00;;
12921;SDS011;6528;48.086;16.282;2022-12-07T03:15:47;1.23;;;1.13;;
12921;SDS011;6528;48.086;16.282;2022-12-07T03:18:20;6.57;;;1.30;;
12921;SDS011;6528;48.086;16.282;2022-12-07T03:20:51;1.13;;;1.13;;
12921;SDS011;6528;48.086;16.282;2022-12-07T03:23:23;0.70;;;0.70;;
12921;SDS011;6528;48.086;16.282;2022-12-07T03:25:55;1.90;;;1.40;;
12921;SDS011;6528;48.086;16.282;2022-12-07T03:28:31;1.57;;;1.47;;
12921;SDS011;6528;48.086;16.282;2022-12-07T03:31:08;1.50;;;1.40;;
12921;SDS011;6528;48.086;16.282;2022-12-07T03:33:44;1.37;;;1.27;;
12921;SDS011;6528;48.086;16.282;2022-12-07T03:36:29;1.07;;;1.07;;
12921;SDS011;6528;48.086;16.282;2022-12-07T03:42:16;1.50;;;1.40;;
12921;SDS011;6528;48.086;16.282;2022-12-07T03:44:43;1.50;;;1.40;;
12921;SDS011;6528;48.086;16.282;2022-12-07T03:49:43;1.63;;;1.27;;
12921;SDS011;6528;48.086;16.282;2022-12-07T03:54:59;1.03;;;1.03;;
12921;SDS011;6528;48.086;16.282;2022-12-07T03:57:30;1.50;;;1.10;;
12921;SDS011;6528;48.086;16.282;2022-12-07T04:00:01;1.07;;;1.07;;
12921;SDS011;6528;48.086;16.282;2022-12-07T04:02:32;1.57;;;1.47;;
12921;SDS011;6528;48.086;16.282;2022-12-07T04:05:00;1.27;;;1.17;;
12921;SDS011;6528;48.086;16.282;2022-12-07T04:07:27;1.13;;;1.13;;
12921;SDS011;6528;48.086;16.282;2022-12-07T04:09:54;1.30;;;1.20;;
12921;SDS011;6528;48.086;16.282;2022-12-07T04:12:22;1.13;;;1.13;;
12921;SDS011;6528;48.086;16.282;2022-12-07T04:14:49;1.20;;;1.20;;
12921;SDS011;6528;48.086;16.282;2022-12-07T04:17:16;1.27;;;1.27;;
12921;SDS011;6528;48.086;16.282;2022-12-07T04:19:43;1.63;;;1.53;;
12921;SDS011;6528;48.086;16.282;2022-12-07T04:22:09;0.87;;;0.87;;
12921;SDS011;6528;48.086;16.282;2022-12-07T04:24:36;1.27;;;1.20;;
12921;SDS011;6528;48.086;16.282;2022-12-07T04:27:03;1.50;;;1.40;;
12921;SDS011;6528;48.086;16.282;2022-12-07T04:29:30;1.20;;;1.20;;
12921;SDS011;6528;48.086;16.282;2022-12-07T04:31:57;1.50;;;1.40;;
12921;SDS011;6528;48.086;16.282;2022-12-07T04:34:24;1.60;;;1.50;;
12921;SDS011;6528;48.086;16.282;2022-12-07T04:36:51;1.30;;;1.23;;
12921;SDS011;6528;48.086;16.282;2022-12-07T04:39:20;1.80;;;1.70;;
12921;SDS011;6528;48.086;16.282;2022-12-07T04:41:51;1.30;;;1.20;;
12921;SDS011;6528;48.086;16.282;2022-12-07T04:44:20;0.93;;;0.93;;
12921;SDS011;6528;48.086;16.282;2022-12-07T04:50:01;1.20;;;1.20;;
12921;SDS011;6528;48.086;16.282;2022-12-07T04:52:28;1.67;;;1.60;;
12921;SDS011;6528;48.086;16.282;2022-12-07T04:54:56;1.13;;;1.13;;
12921;SDS011;6528;48.086;16.282;2022-12-07T04:57:23;1.23;;;1.13;;
12921;SDS011;6528;48.086;16.282;2022-12-07T04:59:50;1.30;;;1.20;;
12921;SDS011;6528;48.086;16.282;2022-12-07T05:02:17;1.40;;;1.30;;
12921;SDS011;6528;48.086;16.282;2022-12-07T05:04:44;1.70;;;1.60;;
12921;SDS011;6528;48.086;16.282;2022-12-07T05:07:10;1.90;;;1.33;;
12921;SDS011;6528;48.086;16.282;2022-12-07T05:09:37;1.70;;;1.60;;
12921;SDS011;6528;48.086;16.282;2022-12-07T05:12:04;1.20;;;1.20;;
12921;SDS011;6528;48.086;16.282;2022-12-07T05:14:31;1.10;;;1.10;;
12921;SDS011;6528;48.086;16.282;2022-12-07T05:16:58;1.70;;;1.60;;
12921;SDS011;6528;48.086;16.282;2022-12-07T05:19:25;1.70;;;1.60;;
12921;SDS011;6528;48.086;16.282;2022-12-07T05:21:52;1.93;;;1.17;;
12921;SDS011;6528;48.086;16.282;2022-12-07T05:24:19;1.73;;;1.37;;
12921;SDS011;6528;48.086;16.282;2022-12-07T05:26:46;1.57;;;1.50;;
12921;SDS011;6528;48.086;16.282;2022-12-07T05:29:15;1.40;;;1.40;;
12921;SDS011;6528;48.086;16.282;2022-12-07T05:31:43;1.67;;;1.57;;
12921;SDS011;6528;48.086;16.282;2022-12-07T05:34:10;1.23;;;1.20;;
12921;SDS011;6528;48.086;16.282;2022-12-07T05:36:37;1.90;;;1.80;;
12921;SDS011;6528;48.086;16.282;2022-12-07T05:39:04;1.80;;;1.70;;
12921;SDS011;6528;48.086;16.282;2022-12-07T05:41:31;1.93;;;1.80;;
12921;SDS011;6528;48.086;16.282;2022-12-07T05:44:18;1.70;;;1.60;;
12921;SDS011;6528;48.086;16.282;2022-12-07T05:46:45;2.20;;;2.00;;
12921;SDS011;6528;48.086;16.282;2022-12-07T05:49:11;1.73;;;1.63;;
12921;SDS011;6528;48.086;16.282;2022-12-07T05:51:38;1.87;;;1.77;;
12921;SDS011;6528;48.086;16.282;2022-12-07T05:54:05;1.87;;;1.77;;
12921;SDS011;6528;48.086;16.282;2022-12-07T05:56:32;1.60;;;1.53;;
12921;SDS011;6528;48.086;16.282;2022-12-07T05:58:59;1.50;;;1.40;;
12921;SDS011;6528;48.086;16.282;2022-12-07T06:01:44;1.53;;;1.43;;
12921;SDS011;6528;48.086;16.282;2022-12-07T06:04:11;1.60;;;1.50;;
12921;SDS011;6528;48.086;16.282;2022-12-07T06:06:38;2.60;;;1.87;;
12921;SDS011;6528;48.086;16.282;2022-12-07T06:09:05;1.90;;;1.80;;
12921;SDS011;6528;48.086;16.282;2022-12-07T06:11:32;1.70;;;1.47;;
12921;SDS011;6528;48.086;16.282;2022-12-07T06:14:18;1.60;;;1.50;;
12921;SDS011;6528;48.086;16.282;2022-12-07T06:16:45;1.37;;;1.27;;
12921;SDS011;6528;48.086;16.282;2022-12-07T06:19:12;1.60;;;1.50;;
12921;SDS011;6528;48.086;16.282;2022-12-07T06:21:39;1.60;;;1.50;;
12921;SDS011;6528;48.086;16.282;2022-12-07T06:24:07;1.97;;;1.77;;
12921;SDS011;6528;48.086;16.282;2022-12-07T06:26:37;1.77;;;1.67;;
12921;SDS011;6528;48.086;16.282;2022-12-07T06:29:04;1.70;;;1.60;;
12921;SDS011;6528;48.086;16.282;2022-12-07T06:31:31;2.00;;;1.90;;
12921;SDS011;6528;48.086;16.282;2022-12-07T06:33:59;1.50;;;1.40;;
12921;SDS011;6528;48.086;16.282;2022-12-07T06:36:27;1.70;;;1.60;;
12921;SDS011;6528;48.086;16.282;2022-12-07T06:38:54;2.00;;;1.90;;
12921;SDS011;6528;48.086;16.282;2022-12-07T06:41:22;1.47;;;1.37;;
12921;SDS011;6528;48.086;16.282;2022-12-07T06:43:49;1.70;;;1.60;;
12921;SDS011;6528;48.086;16.282;2022-12-07T06:46:21;1.53;;;1.43;;
12921;SDS011;6528;48.086;16.282;2022-12-07T06:48:49;2.40;;;2.10;;
12921;SDS011;6528;48.086;16.282;2022-12-07T06:51:16;4.27;;;2.07;;
12921;SDS011;6528;48.086;16.282;2022-12-07T06:53:43;2.60;;;2.23;;
12921;SDS011;6528;48.086;16.282;2022-12-07T06:56:09;2.13;;;1.93;;
12921;SDS011;6528;48.086;16.282;2022-12-07T06:58:36;2.10;;;1.87;;
12921;SDS011;6528;48.086;16.282;2022-12-07T07:01:07;3.00;;;2.10;;
12921;SDS011;6528;48.086;16.282;2022-12-07T07:03:39;7.97;;;2.10;;
12921;SDS011;6528;48.086;16.282;2022-12-07T07:06:06;3.17;;;2.87;;
12921;SDS011;6528;48.086;16.282;2022-12-07T07:08:34;2.57;;;2.37;;
12921;SDS011;6528;48.086;16.282;2022-12-07T07:11:01;2.57;;;1.87;;
12921;SDS011;6528;48.086;16.282;2022-12-07T07:13:29;3.37;;;2.43;;
12921;SDS011;6528;48.086;16.282;2022-12-07T07:15:56;2.90;;;2.50;;
12921;SDS011;6528;48.086;16.282;2022-12-07T07:18:23;2.80;;;2.40;;
12921;SDS011;6528;48.086;16.282;2022-12-07T07:20:52;3.73;;;2.53;;
12921;SDS011;6528;48.086;16.282;2022-12-07T07:23:19;3.50;;;2.23;;
12921;SDS011;6528;48.086;16.282;2022-12-07T07:25:47;2.23;;;2.07;;
12921;SDS011;6528;48.086;16.282;2022-12-07T07:28:15;4.20;;;2.17;;
12921;SDS011;6528;48.086;16.282;2022-12-07T07:30:42;2.53;;;2.30;;
12921;SDS011;6528;48.086;16.282;2022-12-07T07:33:10;4.20;;;2.33;;
12921;SDS011;6528;48.086;16.282;2022-12-07T07:35:37;3.10;;;2.60;;
12921;SDS011;6528;48.086;16.282;2022-12-07T07:38:05;3.43;;;2.63;;
12921;SDS011;6528;48.086;16.282;2022-12-07T07:40:33;3.10;;;2.20;;
12921;SDS011;6528;48.086;16.282;2022-12-07T07:43:01;2.83;;;2.43;;
12921;SDS011;6528;48.086;16.282;2022-12-07T07:45:28;3.03;;;2.77;;
12921;SDS011;6528;48.086;16.282;2022-12-07T07:47:55;3.13;;;2.83;;
12921;SDS011;6528;48.086;16.282;2022-12-07T07:50:22;3.10;;;2.10;;
12921;SDS011;6528;48.086;16.282;2022-12-07T07:52:49;3.63;;;2.80;;
12921;SDS011;6528;48.086;16.282;2022-12-07T07:55:16;4.30;;;2.40;;
12921;SDS011;6528;48.086;16.282;2022-12-07T07:57:43;4.63;;;2.37;;
12921;SDS011;6528;48.086;16.282;2022-12-07T08:00:16;4.10;;;2.57;;
12921;SDS011;6528;48.086;16.282;2022-12-07T08:02:43;2.70;;;2.47;;
12921;SDS011;6528;48.086;16.282;2022-12-07T08:05:11;3.97;;;2.57;;
12921;SDS011;6528;48.086;16.282;2022-12-07T08:07:38;5.53;;;3.20;;
12921;SDS011;6528;48.086;16.282;2022-12-07T08:10:06;4.47;;;2.83;;
12921;SDS011;6528;48.086;16.282;2022-12-07T08:12:36;2.43;;;2.23;;
12921;SDS011;6528;48.086;16.282;2022-12-07T08:15:25;2.90;;;2.70;;
12921;SDS011;6528;48.086;16.282;2022-12-07T08:17:56;3.20;;;2.83;;
12921;SDS011;6528;48.086;16.282;2022-12-07T08:20:23;3.70;;;3.10;;
12921;SDS011;6528;48.086;16.282;2022-12-07T08:22:50;3.07;;;2.80;;
12921;SDS011;6528;48.086;16.282;2022-12-07T08:25:17;4.10;;;2.50;;
12921;SDS011;6528;48.086;16.282;2022-12-07T08:27:44;2.83;;;2.60;;
12921;SDS011;6528;48.086;16.282;2022-12-07T08:30:11;2.73;;;2.10;;
12921;SDS011;6528;48.086;16.282;2022-12-07T08:32:38;2.70;;;2.33;;
12921;SDS011;6528;48.086;16.282;2022-12-07T08:35:05;3.60;;;3.30;;
12921;SDS011;6528;48.086;16.282;2022-12-07T08:37:32;3.20;;;2.90;;
12921;SDS011;6528;48.086;16.282;2022-12-07T08:39:59;2.73;;;2.53;;
12921;SDS011;6528;48.086;16.282;2022-12-07T08:42:27;2.30;;;2.20;;
12921;SDS011;6528;48.086;16.282;2022-12-07T08:44:56;2.80;;;2.43;;
12921;SDS011;6528;48.086;16.282;2022-12-07T08:47:24;3.03;;;2.63;;
12921;SDS011;6528;48.086;16.282;2022-12-07T08:49:51;3.50;;;2.50;;
12921;SDS011;6528;48.086;16.282;2022-12-07T08:52:19;5.47;;;2.80;;
12921;SDS011;6528;48.086;16.282;2022-12-07T08:54:46;2.70;;;2.50;;
12921;SDS011;6528;48.086;16.282;2022-12-07T08:57:13;3.47;;;2.53;;
12921;SDS011;6528;48.086;16.282;2022-12-07T08:59:40;2.40;;;2.20;;
12921;SDS011;6528;48.086;16.282;2022-12-07T09:02:07;2.77;;;2.57;;
12921;SDS011;6528;48.086;16.282;2022-12-07T09:04:34;6.07;;;2.40;;
12921;SDS011;6528;48.086;16.282;2022-12-07T09:07:01;2.27;;;2.07;;
12921;SDS011;6528;48.086;16.282;2022-12-07T09:09:29;3.43;;;2.13;;
12921;SDS011;6528;48.086;16.282;2022-12-07T09:11:55;2.67;;;2.47;;
12921;SDS011;6528;48.086;16.282;2022-12-07T09:14:22;2.53;;;2.33;;
12921;SDS011;6528;48.086;16.282;2022-12-07T09:16:50;2.97;;;2.33;;
12921;SDS011;6528;48.086;16.282;2022-12-07T09:19:17;4.53;;;2.50;;
12921;SDS011;6528;48.086;16.282;2022-12-07T09:21:43;5.63;;;2.77;;
12921;SDS011;6528;48.086;16.282;2022-12-07T09:24:11;2.80;;;2.57;;
12921;SDS011;6528;48.086;16.282;2022-12-07T09:26:39;2.80;;;2.60;;
12921;SDS011;6528;48.086;16.282;2022-12-07T09:29:06;2.50;;;2.17;;
12921;SDS011;6528;48.086;16.282;2022-12-07T09:31:35;3.20;;;2.90;;
12921;SDS011;6528;48.086;16.282;2022-12-07T09:34:03;2.70;;;2.23;;
12921;SDS011;6528;48.086;16.282;2022-12-07T09:36:32;2.93;;;2.23;;
12921;SDS011;6528;48.086;16.282;2022-12-07T09:38:59;3.63;;;2.30;;
12921;SDS011;6528;48.086;16.282;2022-12-07T09:41:27;2.13;;;2.03;;
12921;SDS011;6528;48.086;16.282;2022-12-07T09:43:58;1.93;;;1.83;;
12921;SDS011;6528;48.086;16.282;2022-12-07T09:46:40;2.80;;;2.50;;
12921;SDS011;6528;48.086;16.282;2022-12-07T09:49:13;2.50;;;2.30;;
12921;SDS011;6528;48.086;16.282;2022-12-07T09:51:43;2.93;;;2.63;;
12921;SDS011;6528;48.086;16.282;2022-12-07T09:54:15;2.77;;;2.57;;
12921;SDS011;6528;48.086;16.282;2022-12-07T09:56:43;3.03;;;2.77;;
12921;SDS011;6528;48.086;16.282;2022-12-07T09:59:16;3.17;;;2.87;;
12921;SDS011;6528;48.086;16.282;2022-12-07T10:01:46;2.90;;;2.63;;
12921;SDS011;6528;48.086;16.282;2022-12-07T10:04:26;3.10;;;2.37;;
12921;SDS011;6528;48.086;16.282;2022-12-07T10:06:55;3.33;;;3.03;;
12921;SDS011;6528;48.086;16.282;2022-12-07T10:09:22;3.27;;;2.97;;
12921;SDS011;6528;48.086;16.282;2022-12-07T10:11:58;3.10;;;2.90;;
12921;SDS011;6528;48.086;16.282;2022-12-07T10:14:24;3.70;;;3.03;;
12921;SDS011;6528;48.086;16.282;2022-12-07T10:17:28;2.90;;;2.70;;
12921;SDS011;6528;48.086;16.282;2022-12-07T10:23:03;3.57;;;3.27;;
12921;SDS011;6528;48.086;16.282;2022-12-07T10:25:33;4.03;;;2.90;;
12921;SDS011;6528;48.086;16.282;2022-12-07T10:30:47;3.60;;;3.20;;
12921;SDS011;6528;48.086;16.282;2022-12-07T10:33:30;3.50;;;3.20;;
12921;SDS011;6528;48.086;16.282;2022-12-07T10:36:19;3.57;;;3.23;;
12921;SDS011;6528;48.086;16.282;2022-12-07T10:39:11;3.33;;;3.00;;
12921;SDS011;6528;48.086;16.282;2022-12-07T10:41:52;3.50;;;3.20;;
12921;SDS011;6528;48.086;16.282;2022-12-07T10:44:23;3.47;;;3.13;;
12921;SDS011;6528;48.086;16.282;2022-12-07T10:52:10;3.30;;;2.73;;
12921;SDS011;6528;48.086;16.282;2022-12-07T10:55:08;4.20;;;3.73;;
12921;SDS011;6528;48.086;16.282;2022-12-07T11:06:54;3.90;;;3.07;;
12921;SDS011;6528;48.086;16.282;2022-12-07T11:12:38;3.10;;;2.80;;
12921;SDS011;6528;48.086;16.282;2022-12-07T11:15:19;3.43;;;3.10;;
12921;SDS011;6528;48.086;16.282;2022-12-07T11:20:29;3.50;;;3.20;;
12921;SDS011;6528;48.086;16.282;2022-12-07T11:23:13;3.17;;;2.93;;
12921;SDS011;6528;48.086;16.282;2022-12-07T11:26:02;3.37;;;3.07;;
12921;SDS011;6528;48.086;16.282;2022-12-07T11:29:04;6.17;;;3.70;;
12921;SDS011;6528;48.086;16.282;2022-12-07T11:32:04;5.70;;;4.90;;
12921;SDS011;6528;48.086;16.282;2022-12-07T11:38:03;16.97;;;9.40;;
12921;SDS011;6528;48.086;16.282;2022-12-07T11:40:41;23.13;;;12.70;;
12921;SDS011;6528;48.086;16.282;2022-12-07T11:43:45;33.43;;;18.70;;
12921;SDS011;6528;48.086;16.282;2022-12-07T11:46:24;36.77;;;21.67;;
12921;SDS011;6528;48.086;16.282;2022-12-07T11:49:13;36.23;;;20.17;;
12921;SDS011;6528;48.086;16.282;2022-12-07T11:52:01;40.93;;;25.67;;
12921;SDS011;6528;48.086;16.282;2022-12-07T11:54:32;48.97;;;26.73;;
12921;SDS011;6528;48.086;16.282;2022-12-07T11:57:04;56.37;;;28.93;;
12921;SDS011;6528;48.086;16.282;2022-12-07T11:59:56;55.00;;;29.63;;
12921;SDS011;6528;48.086;16.282;2022-12-07T12:05:27;55.40;;;32.97;;
12921;SDS011;6528;48.086;16.282;2022-12-07T12:20:14;67.30;;;37.73;;
12921;SDS011;6528;48.086;16.282;2022-12-07T12:23:35;66.60;;;37.20;;
12921;SDS011;6528;48.086;16.282;2022-12-07T12:26:35;71.27;;;38.20;;
12921;SDS011;6528;48.086;16.282;2022-12-07T12:28:57;72.93;;;39.73;;
12921;SDS011;6528;48.086;16.282;2022-12-07T12:31:46;71.77;;;38.20;;
12921;SDS011;6528;48.086;16.282;2022-12-07T12:42:46;75.33;;;38.50;;
12921;SDS011;6528;48.086;16.282;2022-12-07T12:45:32;59.07;;;37.00;;
12921;SDS011;6528;48.086;16.282;2022-12-07T12:53:05;56.97;;;33.43;;
12921;SDS011;6528;48.086;16.282;2022-12-07T12:58:39;62.60;;;33.87;;
12921;SDS011;6528;48.086;16.282;2022-12-07T13:03:59;57.87;;;32.47;;
12921;SDS011;6528;48.086;16.282;2022-12-07T13:08:54;61.00;;;33.07;;
12921;SDS011;6528;48.086;16.282;2022-12-07T13:11:27;49.00;;;31.33;;
12921;SDS011;6528;48.086;16.282;2022-12-07T13:20:07;44.53;;;27.13;;
12921;SDS011;6528;48.086;16.282;2022-12-07T13:22:43;46.27;;;28.73;;
12921;SDS011;6528;48.086;16.282;2022-12-07T13:28:14;50.30;;;28.27;;
12921;SDS011;6528;48.086;16.282;2022-12-07T13:30:46;51.33;;;26.73;;
12921;SDS011;6528;48.086;16.282;2022-12-07T13:33:36;52.60;;;26.40;;
12921;SDS011;6528;48.086;16.282;2022-12-07T13:36:03;40.13;;;23.20;;
12921;SDS011;6528;48.086;16.282;2022-12-07T13:38:37;38.60;;;24.30;;
12921;SDS011;6528;48.086;16.282;2022-12-07T13:43:42;46.83;;;25.60;;
12921;SDS011;6528;48.086;16.282;2022-12-07T13:46:17;41.03;;;24.10;;
12921;SDS011;6528;48.086;16.282;2022-12-07T13:48:50;41.43;;;25.13;;
12921;SDS011;6528;48.086;16.282;2022-12-07T13:51:36;45.00;;;24.47;;
12921;SDS011;6528;48.086;16.282;2022-12-07T13:54:12;44.50;;;23.50;;
12921;SDS011;6528;48.086;16.282;2022-12-07T13:56:40;35.83;;;21.97;;
12921;SDS011;6528;48.086;16.282;2022-12-07T13:59:13;42.30;;;22.43;;
12921;SDS011;6528;48.086;16.282;2022-12-07T14:01:45;43.63;;;22.90;;
12921;SDS011;6528;48.086;16.282;2022-12-07T14:04:29;39.30;;;20.77;;
12921;SDS011;6528;48.086;16.282;2022-12-07T14:06:58;35.47;;;22.90;;
12921;SDS011;6528;48.086;16.282;2022-12-07T14:09:27;35.83;;;21.43;;
12921;SDS011;6528;48.086;16.282;2022-12-07T14:11:56;34.87;;;20.33;;
12921;SDS011;6528;48.086;16.282;2022-12-07T14:14:28;34.80;;;20.53;;
12921;SDS011;6528;48.086;16.282;2022-12-07T14:17:18;35.17;;;20.10;;
12921;SDS011;6528;48.086;16.282;2022-12-07T14:22:25;33.13;;;19.10;;
12921;SDS011;6528;48.086;16.282;2022-12-07T14:25:09;34.03;;;18.37;;
12921;SDS011;6528;48.086;16.282;2022-12-07T14:27:49;34.47;;;18.77;;
12921;SDS011;6528;48.086;16.282;2022-12-07T14:30:22;32.57;;;18.77;;
12921;SDS011;6528;48.086;16.282;2022-12-07T14:32:56;29.47;;;17.27;;
12921;SDS011;6528;48.086;16.282;2022-12-07T14:35:26;28.17;;;17.70;;
12921;SDS011;6528;48.086;16.282;2022-12-07T14:37:54;31.70;;;18.43;;
12921;SDS011;6528;48.086;16.282;2022-12-07T14:40:25;28.20;;;17.67;;
12921;SDS011;6528;48.086;16.282;2022-12-07T14:42:55;29.57;;;17.07;;
12921;SDS011;6528;48.086;16.282;2022-12-07T14:45:27;29.80;;;17.43;;
12921;SDS011;6528;48.086;16.282;2022-12-07T14:47:54;30.47;;;16.50;;
12921;SDS011;6528;48.086;16.282;2022-12-07T14:50:44;28.60;;;16.40;;
12921;SDS011;6528;48.086;16.282;2022-12-07T14:53:37;29.10;;;16.37;;
12921;SDS011;6528;48.086;16.282;2022-12-07T14:56:07;24.37;;;15.57;;
12921;SDS011;6528;48.086;16.282;2022-12-07T14:58:34;26.93;;;15.63;;
12921;SDS011;6528;48.086;16.282;2022-12-07T15:01:01;27.03;;;16.37;;
12921;SDS011;6528;48.086;16.282;2022-12-07T15:03:28;29.13;;;17.03;;
12921;SDS011;6528;48.086;16.282;2022-12-07T15:05:56;25.90;;;15.37;;
12921;SDS011;6528;48.086;16.282;2022-12-07T15:08:23;22.07;;;14.53;;
12921;SDS011;6528;48.086;16.282;2022-12-07T15:10:50;25.73;;;14.17;;
12921;SDS011;6528;48.086;16.282;2022-12-07T15:13:17;22.17;;;13.70;;
12921;SDS011;6528;48.086;16.282;2022-12-07T15:16:02;24.30;;;14.13;;
12921;SDS011;6528;48.086;16.282;2022-12-07T15:18:29;21.00;;;13.07;;
12921;SDS011;6528;48.086;16.282;2022-12-07T15:20:56;22.93;;;14.00;;
12921;SDS011;6528;48.086;16.282;2022-12-07T15:23:23;18.23;;;12.50;;
12921;SDS011;6528;48.086;16.282;2022-12-07T15:25:50;21.20;;;13.07;;
12921;SDS011;6528;48.086;16.282;2022-12-07T15:28:17;20.53;;;13.43;;
12921;SDS011;6528;48.086;16.282;2022-12-07T15:30:44;23.43;;;13.10;;
12921;SDS011;6528;48.086;16.282;2022-12-07T15:33:12;20.90;;;12.63;;
12921;SDS011;6528;48.086;16.282;2022-12-07T15:35:40;19.23;;;12.07;;
12921;SDS011;6528;48.086;16.282;2022-12-07T15:38:08;22.83;;;12.70;;
12921;SDS011;6528;48.086;16.282;2022-12-07T15:40:35;18.60;;;13.20;;
12921;SDS011;6528;48.086;16.282;2022-12-07T15:43:02;19.40;;;12.53;;
12921;SDS011;6528;48.086;16.282;2022-12-07T15:45:30;17.90;;;12.53;;
12921;SDS011;6528;48.086;16.282;2022-12-07T15:47:57;17.20;;;12.13;;
12921;SDS011;6528;48.086;16.282;2022-12-07T15:50:44;17.67;;;11.57;;
12921;SDS011;6528;48.086;16.282;2022-12-07T15:53:11;18.83;;;13.07;;
12921;SDS011;6528;48.086;16.282;2022-12-07T15:55:38;17.73;;;13.20;;
12921;SDS011;6528;48.086;16.282;2022-12-07T15:58:06;17.10;;;11.63;;
12921;SDS011;6528;48.086;16.282;2022-12-07T16:00:33;17.87;;;10.83;;
12921;SDS011;6528;48.086;16.282;2022-12-07T16:03:00;18.23;;;11.60;;
12921;SDS011;6528;48.086;16.282;2022-12-07T16:05:27;19.90;;;12.60;;
12921;SDS011;6528;48.086;16.282;2022-12-07T16:07:54;17.20;;;12.20;;
12921;SDS011;6528;48.086;16.282;2022-12-07T16:10:21;18.53;;;12.20;;
12921;SDS011;6528;48.086;16.282;2022-12-07T16:12:48;13.70;;;11.03;;
12921;SDS011;6528;48.086;16.282;2022-12-07T16:15:15;16.00;;;12.07;;
12921;SDS011;6528;48.086;16.282;2022-12-07T16:17:49;14.90;;;11.10;;
12921;SDS011;6528;48.086;16.282;2022-12-07T16:20:17;17.93;;;11.63;;
12921;SDS011;6528;48.086;16.282;2022-12-07T16:22:44;18.20;;;12.67;;
12921;SDS011;6528;48.086;16.282;2022-12-07T16:25:10;16.93;;;11.03;;
12921;SDS011;6528;48.086;16.282;2022-12-07T16:27:37;15.60;;;10.97;;
12921;SDS011;6528;48.086;16.282;2022-12-07T16:30:05;14.00;;;10.73;;
12921;SDS011;6528;48.086;16.282;2022-12-07T16:32:33;13.37;;;10.03;;
12921;SDS011;6528;48.086;16.282;2022-12-07T16:35:00;17.03;;;11.50;;
12921;SDS011;6528;48.086;16.282;2022-12-07T16:37:27;16.10;;;11.70;;
12921;SDS011;6528;48.086;16.282;2022-12-07T16:39:54;17.10;;;11.37;;
12921;SDS011;6528;48.086;16.282;2022-12-07T16:42:21;16.57;;;12.67;;
12921;SDS011;6528;48.086;16.282;2022-12-07T16:44:48;16.90;;;12.53;;
12921;SDS011;6528;48.086;16.282;2022-12-07T16:47:15;14.77;;;12.43;;
12921;SDS011;6528;48.086;16.282;2022-12-07T16:49:42;17.20;;;12.57;;
12921;SDS011;6528;48.086;16.282;2022-12-07T16:52:12;16.10;;;13.07;;
12921;SDS011;6528;48.086;16.282;2022-12-07T16:54:46;16.53;;;13.10;;
12921;SDS011;6528;48.086;16.282;2022-12-07T16:57:15;15.07;;;12.67;;
12921;SDS011;6528;48.086;16.282;2022-12-07T16:59:48;17.40;;;14.23;;
12921;SDS011;6528;48.086;16.282;2022-12-07T17:02:15;16.63;;;12.77;;
12921;SDS011;6528;48.086;16.282;2022-12-07T17:04:42;18.03;;;13.60;;
12921;SDS011;6528;48.086;16.282;2022-12-07T17:07:09;16.43;;;13.20;;
12921;SDS011;6528;48.086;16.282;2022-12-07T17:09:36;16.90;;;12.80;;
12921;SDS011;6528;48.086;16.282;2022-12-07T17:12:03;14.83;;;12.70;;